銀河
新普京
avhome成人影音網
夜世界情趣精品店
japorndl.com
滔精網
永利
彩27
威尼斯人6625
新葡京9929
發新話題
 

汽車專區

    標題 作者 /回復/查看 最後發表
  版塊主題
  資訊情報 [05-17] BMW M確認將於下一代M4率先推出CSL車型 (9p) e48585 2018-5-17 0 / 5 2018-5-17 03:26 by e48585
  資訊情報 [05-16] 日本商用車連行人防撞系統都是標配 [3P] Schirm 2018-5-16 0 / 10 2018-5-16 06:52 by Schirm
  資訊情報 [05-16] 特斯拉獨資上海設廠 中國放寬汽車業外資限制後首起 [1P] Schirm 2018-5-16 0 / 6 2018-5-16 06:51 by Schirm
  資訊情報 [05-15] 川普堅持 NAFTA 修訂汽車製造比例 專家指出對產業就業率沒幫助 [1P] Schirm 2018-5-15 1 / 8 2018-5-16 06:51 by Yu1Hatan0
  資訊情報 [05-16] 皮卡也要有個性,BRABUS推黑魂X-Class(6p) e48585 2018-5-16 0 / 3 2018-5-16 03:46 by e48585
  資訊情報 [05-16] 寫下四環家族經典,首次Audi quattro Land車主聚會(4p) e48585 2018-5-16 0 / 2 2018-5-16 03:40 by e48585
  資訊情報 [05-16] BMW 8系列重出江湖,M850i xDRive Coupe將和M8 GTE利曼大賽首發(8p) e48585 2018-5-16 0 / 4 2018-5-16 03:36 by e48585
  資訊情報 [05-16] DS終於要推出一台足以和BWM 5系列抗衡的全新旗艦DS8(5p) e48585 2018-5-16 0 / 3 2018-5-16 03:25 by e48585
  資訊情報 [05-16] AUDI為全新Q8跑旅全球首發拍攝微電影造勢,傳遞都會跨界理念(9p) e48585 2018-5-16 0 / 2 2018-5-16 03:22 by e48585
  資訊情報 [05-15] 第二代 Lexus CT200h 預計2019年問世 日媒曝光內、外觀改款資訊 [3P] Schirm 2018-5-15 0 / 7 2018-5-15 23:37 by Schirm
  資訊情報 [05-15] 開了 160 萬公里只需基本保養 驚動 Toyota 向車主回購進行研究 [2P] Schirm 2018-5-15 0 / 22 2018-5-15 06:48 by Schirm
  資訊情報 [05-15] 教宗加持簽名 Lamborghini 超跑拍賣金額比預期高 2 倍 [2P] Schirm 2018-5-15 0 / 9 2018-5-15 06:48 by Schirm
  資訊情報 [05-15] Toyota撒11億美元升級工廠 新世代RAV4 2018冬季在美上市 [5P] Schirm 2018-5-15 0 / 7 2018-5-15 06:47 by Schirm
  資訊情報 [05-14] Rolls-Royce 首款 4 驅休旅 Cullinan 正式亮相 最快2018年底台灣上市 [6P] Schirm 2018-5-14 1 / 10 2018-5-15 06:45 by Yu1Hatan0
  資訊情報 [05-15] 打破中國劣質形象,VOLVO表示品質比歐洲好(5p) e48585 2018-5-15 0 / 5 2018-5-15 04:19 by e48585
  資訊情報 [05-15] 打破市場價格,教宗LAMBORGHINI Huracan高價賣出(5p) e48585 2018-5-15 0 / 3 2018-5-15 04:14 by e48585
  資訊情報 [05-15] 三菱下一代Outlander將與NISSAN Rouge共用平台,也會推出插電式油電車型(5p) e48585 2018-5-15 0 / 2 2018-5-15 04:10 by e48585
  資訊情報 [05-15] 賓士AMG GT家族新增猛將AMG GT S Roadster雙座敞篷跑車(10p) e48585 2018-5-15 0 / 4 2018-5-15 03:55 by e48585
  資訊情報 [05-15] SUBARU首部插電式油電跨界休旅Crosstrek Hybrid年底推出(5p) e48585 2018-5-15 0 / 2 2018-5-15 03:48 by e48585
  資訊情報 [05-14] Subaru XV PHV 最快2018年底開賣 [2P] Schirm 2018-5-14 0 / 6 2018-5-14 23:47 by Schirm
  資訊情報 [05-14] Toyota C-HR 新增更便宜的入門車型挽救美國市場銷量 [2P] Schirm 2018-5-14 0 / 17 2018-5-14 06:46 by Schirm
  資訊情報 [05-14] 2018年首季全球電動車銷售 Model 3 大輸 Leaf [8P] Schirm 2018-5-14 0 / 9 2018-5-14 06:45 by Schirm
  資訊情報 [05-14] 三菱 Lancer 重生終於有明確時間表 轉換跨界已成定局 [2P] Schirm 2018-5-14 0 / 12 2018-5-14 06:45 by Schirm
  資訊情報 [05-13] Uber宣布將重啟自駕車測試 [1P] Schirm 2018-5-13 1 / 9 2018-5-14 06:44 by Yu1Hatan0
  資訊情報 [05-14] 當今世界最快的SUV是JAGUAR的F-Pace SVR Lister改裝版(6p) e48585 2018-5-14 0 / 8 2018-5-14 04:10 by e48585
  資訊情報 [05-14] 支援銷量表現,TESLA將提供Model X等車型全新內裝配置(6p) e48585 2018-5-14 0 / 1 2018-5-14 04:04 by e48585
  資訊情報 [05-14] 守護地球和平,NISSAN推星際大戰版Rogue(5p) e48585 2018-5-14 0 / 3 2018-5-14 04:00 by e48585
  資訊情報 [05-14] 繼賓士和BMW之後,AUDI也宣布不參加2019年底特律車展,原因竟是……(5p) e48585 2018-5-14 0 / 4 2018-5-14 03:54 by e48585
  資訊情報 [05-14] ASTON MARTIN全新高性能旗艦DB11 AMR紐柏林賽道發表(10p) e48585 2018-5-14 0 / 2 2018-5-14 03:50 by e48585
  資訊情報 [05-09] 每分鐘燒6500美元 車界大老斷言特斯拉必破產 [1P] Schirm 2018-5-9 2 / 17 2018-5-14 00:04 by Kranich
  資訊情報 [05-13] 主打市區通勤的美國電動車最低只要7699 美元 [4P] Schirm 2018-5-13 0 / 9 2018-5-13 16:15 by Schirm
  資訊情報 [05-13] 福特執行長反駁「淘汰轎車」說法 [2P] Schirm 2018-5-13 0 / 8 2018-5-13 16:13 by Schirm
  資訊情報 [05-13] 首輛 Tesla Model 3 現身台灣 但非台灣特斯拉導入 [3P] Schirm 2018-5-13 0 / 7 2018-5-13 16:10 by Schirm
  資訊情報 [05-11] 特斯拉自駕車再傳車禍 2 死 1 傷 美國官方啟動調查 [2P] Schirm 2018-5-11 1 / 14 2018-5-13 15:31 by Yu1Hatan0
  資訊情報 [05-13] BMW 2019年式2系列Active Tourer與Gran Tourer改款進化,節能高效、運動風(10p) e48585 2018-5-13 0 / 5 2018-5-13 13:33 by e48585
發新話題
查看 排序方式  
avhome成人影音網 夜世界情趣精品店
1495